sensor_id;sensor_type;location;lat;lon;timestamp;temperature;humidity
11423;DHT22;5768;51.476;7.210;2023-06-26T00:02:29;25.70;15.20
11423;DHT22;5768;51.476;7.210;2023-06-26T00:07:33;25.60;15.30
11423;DHT22;5768;51.476;7.210;2023-06-26T00:12:37;25.60;15.10
11423;DHT22;5768;51.476;7.210;2023-06-26T00:17:39;25.60;15.30
11423;DHT22;5768;51.476;7.210;2023-06-26T00:22:41;25.50;15.30
11423;DHT22;5768;51.476;7.210;2023-06-26T00:27:46;25.40;15.30
11423;DHT22;5768;51.476;7.210;2023-06-26T00:32:49;25.40;15.40
11423;DHT22;5768;51.476;7.210;2023-06-26T00:37:51;25.30;15.00
11423;DHT22;5768;51.476;7.210;2023-06-26T00:42:54;25.10;15.30
11423;DHT22;5768;51.476;7.210;2023-06-26T00:53:00;25.00;15.50
11423;DHT22;5768;51.476;7.210;2023-06-26T00:58:03;25.00;15.10
11423;DHT22;5768;51.476;7.210;2023-06-26T01:03:06;25.10;15.20
11423;DHT22;5768;51.476;7.210;2023-06-26T01:08:09;24.90;15.10
11423;DHT22;5768;51.476;7.210;2023-06-26T01:13:14;24.90;15.50
11423;DHT22;5768;51.476;7.210;2023-06-26T01:18:18;24.80;15.50
11423;DHT22;5768;51.476;7.210;2023-06-26T01:23:24;24.80;15.60
11423;DHT22;5768;51.476;7.210;2023-06-26T01:28:35;24.70;15.40
11423;DHT22;5768;51.476;7.210;2023-06-26T01:33:42;24.70;15.10
11423;DHT22;5768;51.476;7.210;2023-06-26T01:38:45;24.70;15.10
11423;DHT22;5768;51.476;7.210;2023-06-26T01:44:01;24.70;15.10
11423;DHT22;5768;51.476;7.210;2023-06-26T01:49:18;24.60;15.10
11423;DHT22;5768;51.476;7.210;2023-06-26T01:54:30;24.70;15.00
11423;DHT22;5768;51.476;7.210;2023-06-26T01:59:40;24.50;14.80
11423;DHT22;5768;51.476;7.210;2023-06-26T02:04:44;24.50;14.40
11423;DHT22;5768;51.476;7.210;2023-06-26T02:09:48;24.50;14.40
11423;DHT22;5768;51.476;7.210;2023-06-26T02:14:52;24.50;14.30
11423;DHT22;5768;51.476;7.210;2023-06-26T02:19:54;24.40;14.40
11423;DHT22;5768;51.476;7.210;2023-06-26T02:24:56;24.30;15.10
11423;DHT22;5768;51.476;7.210;2023-06-26T02:30:00;24.20;14.80
11423;DHT22;5768;51.476;7.210;2023-06-26T02:35:03;24.20;15.10
11423;DHT22;5768;51.476;7.210;2023-06-26T02:40:06;24.10;15.30
11423;DHT22;5768;51.476;7.210;2023-06-26T02:45:11;24.10;15.40
11423;DHT22;5768;51.476;7.210;2023-06-26T03:00:23;23.60;14.80
11423;DHT22;5768;51.476;7.210;2023-06-26T03:05:26;23.70;14.40
11423;DHT22;5768;51.476;7.210;2023-06-26T03:10:28;23.60;14.30
11423;DHT22;5768;51.476;7.210;2023-06-26T03:15:31;23.50;14.20
11423;DHT22;5768;51.476;7.210;2023-06-26T03:20:34;23.50;14.10
11423;DHT22;5768;51.476;7.210;2023-06-26T03:25:36;23.40;14.10
11423;DHT22;5768;51.476;7.210;2023-06-26T03:30:40;23.40;14.10
11423;DHT22;5768;51.476;7.210;2023-06-26T03:35:42;23.40;14.10
11423;DHT22;5768;51.476;7.210;2023-06-26T03:40:44;23.40;14.10
11423;DHT22;5768;51.476;7.210;2023-06-26T03:45:48;23.40;14.10
11423;DHT22;5768;51.476;7.210;2023-06-26T03:50:51;23.30;14.20
11423;DHT22;5768;51.476;7.210;2023-06-26T03:55:53;23.40;14.30
11423;DHT22;5768;51.476;7.210;2023-06-26T04:00:57;23.30;14.50
11423;DHT22;5768;51.476;7.210;2023-06-26T04:06:00;23.20;14.60
11423;DHT22;5768;51.476;7.210;2023-06-26T04:11:02;23.10;14.80
11423;DHT22;5768;51.476;7.210;2023-06-26T04:16:06;23.10;14.90
11423;DHT22;5768;51.476;7.210;2023-06-26T04:26:13;22.90;16.40
11423;DHT22;5768;51.476;7.210;2023-06-26T04:31:17;23.00;16.20
11423;DHT22;5768;51.476;7.210;2023-06-26T04:36:19;22.80;16.50
11423;DHT22;5768;51.476;7.210;2023-06-26T04:41:22;22.90;16.70
11423;DHT22;5768;51.476;7.210;2023-06-26T04:46:25;22.80;16.80
11423;DHT22;5768;51.476;7.210;2023-06-26T04:51:28;22.70;17.00
11423;DHT22;5768;51.476;7.210;2023-06-26T04:56:30;22.70;17.00
11423;DHT22;5768;51.476;7.210;2023-06-26T05:01:34;22.70;17.10
11423;DHT22;5768;51.476;7.210;2023-06-26T05:06:40;22.80;17.00
11423;DHT22;5768;51.476;7.210;2023-06-26T05:11:42;22.70;16.90
11423;DHT22;5768;51.476;7.210;2023-06-26T05:16:46;22.90;16.80
11423;DHT22;5768;51.476;7.210;2023-06-26T05:21:48;22.90;16.90
11423;DHT22;5768;51.476;7.210;2023-06-26T05:26:52;22.90;16.60
11423;DHT22;5768;51.476;7.210;2023-06-26T05:31:57;22.90;16.90
11423;DHT22;5768;51.476;7.210;2023-06-26T05:37:00;22.90;17.00
11423;DHT22;5768;51.476;7.210;2023-06-26T05:42:05;23.20;17.00
11423;DHT22;5768;51.476;7.210;2023-06-26T05:47:09;23.30;17.20
11423;DHT22;5768;51.476;7.210;2023-06-26T05:52:13;23.50;16.80
11423;DHT22;5768;51.476;7.210;2023-06-26T05:57:16;23.50;16.70
11423;DHT22;5768;51.476;7.210;2023-06-26T06:02:20;23.70;16.90
11423;DHT22;5768;51.476;7.210;2023-06-26T06:07:22;23.50;16.40
11423;DHT22;5768;51.476;7.210;2023-06-26T06:12:24;23.20;16.50
11423;DHT22;5768;51.476;7.210;2023-06-26T06:17:27;23.10;16.50
11423;DHT22;5768;51.476;7.210;2023-06-26T06:22:30;23.20;16.70
11423;DHT22;5768;51.476;7.210;2023-06-26T06:27:32;23.60;16.70
11423;DHT22;5768;51.476;7.210;2023-06-26T06:32:35;23.60;16.90
11423;DHT22;5768;51.476;7.210;2023-06-26T06:37:38;23.20;16.50
11423;DHT22;5768;51.476;7.210;2023-06-26T06:42:40;23.50;16.90
11423;DHT22;5768;51.476;7.210;2023-06-26T06:47:44;23.50;17.20
11423;DHT22;5768;51.476;7.210;2023-06-26T06:52:46;23.10;17.30
11423;DHT22;5768;51.476;7.210;2023-06-26T06:57:49;22.90;17.20
11423;DHT22;5768;51.476;7.210;2023-06-26T07:02:53;22.70;17.70
11423;DHT22;5768;51.476;7.210;2023-06-26T07:07:57;22.50;17.50
11423;DHT22;5768;51.476;7.210;2023-06-26T07:12:59;22.80;17.80
11423;DHT22;5768;51.476;7.210;2023-06-26T07:18:02;22.50;17.40
11423;DHT22;5768;51.476;7.210;2023-06-26T07:23:05;22.60;17.30
11423;DHT22;5768;51.476;7.210;2023-06-26T07:28:10;23.30;17.00
11423;DHT22;5768;51.476;7.210;2023-06-26T07:33:14;23.60;16.80
11423;DHT22;5768;51.476;7.210;2023-06-26T07:38:16;23.40;16.80
11423;DHT22;5768;51.476;7.210;2023-06-26T07:43:18;23.20;16.80
11423;DHT22;5768;51.476;7.210;2023-06-26T07:48:22;23.50;16.80
11423;DHT22;5768;51.476;7.210;2023-06-26T07:53:24;23.30;16.70
11423;DHT22;5768;51.476;7.210;2023-06-26T07:58:26;23.70;16.60
11423;DHT22;5768;51.476;7.210;2023-06-26T08:03:30;24.60;16.60
11423;DHT22;5768;51.476;7.210;2023-06-26T08:08:32;24.90;16.40
11423;DHT22;5768;51.476;7.210;2023-06-26T08:13:34;25.00;16.30
11423;DHT22;5768;51.476;7.210;2023-06-26T08:18:38;24.30;16.20
11423;DHT22;5768;51.476;7.210;2023-06-26T08:23:40;24.30;16.50
11423;DHT22;5768;51.476;7.210;2023-06-26T08:28:42;24.30;16.50
11423;DHT22;5768;51.476;7.210;2023-06-26T08:33:46;24.00;16.70
11423;DHT22;5768;51.476;7.210;2023-06-26T08:38:48;24.40;16.50
11423;DHT22;5768;51.476;7.210;2023-06-26T08:43:50;25.10;16.30
11423;DHT22;5768;51.476;7.210;2023-06-26T08:48:56;24.90;16.50
11423;DHT22;5768;51.476;7.210;2023-06-26T08:54:07;25.40;16.30
11423;DHT22;5768;51.476;7.210;2023-06-26T08:59:12;24.70;16.40
11423;DHT22;5768;51.476;7.210;2023-06-26T09:04:16;24.80;16.40
11423;DHT22;5768;51.476;7.210;2023-06-26T09:09:18;24.80;16.30
11423;DHT22;5768;51.476;7.210;2023-06-26T09:14:21;25.40;16.30
11423;DHT22;5768;51.476;7.210;2023-06-26T09:19:26;25.50;16.20
11423;DHT22;5768;51.476;7.210;2023-06-26T09:24:30;25.50;16.10
11423;DHT22;5768;51.476;7.210;2023-06-26T09:29:33;24.80;16.40
11423;DHT22;5768;51.476;7.210;2023-06-26T09:34:37;24.80;16.50
11423;DHT22;5768;51.476;7.210;2023-06-26T09:39:43;25.20;16.30
11423;DHT22;5768;51.476;7.210;2023-06-26T09:44:46;25.50;16.10
11423;DHT22;5768;51.476;7.210;2023-06-26T09:49:50;25.40;16.10
11423;DHT22;5768;51.476;7.210;2023-06-26T09:55:07;24.90;16.30
11423;DHT22;5768;51.476;7.210;2023-06-26T10:00:11;24.70;16.30
11423;DHT22;5768;51.476;7.210;2023-06-26T10:05:15;25.60;16.20
11423;DHT22;5768;51.476;7.210;2023-06-26T10:10:19;25.50;16.10
11423;DHT22;5768;51.476;7.210;2023-06-26T10:15:25;25.60;16.00
11423;DHT22;5768;51.476;7.210;2023-06-26T10:20:30;25.60;15.90
11423;DHT22;5768;51.476;7.210;2023-06-26T10:25:37;25.30;15.60
11423;DHT22;5768;51.476;7.210;2023-06-26T10:30:44;25.50;15.70
11423;DHT22;5768;51.476;7.210;2023-06-26T10:35:51;26.00;15.70
11423;DHT22;5768;51.476;7.210;2023-06-26T10:40:53;25.10;15.50
11423;DHT22;5768;51.476;7.210;2023-06-26T10:45:55;24.70;15.50
11423;DHT22;5768;51.476;7.210;2023-06-26T10:51:13;24.80;15.40
11423;DHT22;5768;51.476;7.210;2023-06-26T10:56:15;25.00;15.30
11423;DHT22;5768;51.476;7.210;2023-06-26T11:01:19;25.30;15.20
11423;DHT22;5768;51.476;7.210;2023-06-26T11:06:24;26.00;14.90
11423;DHT22;5768;51.476;7.210;2023-06-26T11:11:58;25.90;14.80
11423;DHT22;5768;51.476;7.210;2023-06-26T11:17:05;26.10;15.00
11423;DHT22;5768;51.476;7.210;2023-06-26T11:22:09;26.10;15.20
11423;DHT22;5768;51.476;7.210;2023-06-26T11:27:12;24.50;15.60
11423;DHT22;5768;51.476;7.210;2023-06-26T11:32:14;24.40;15.90
11423;DHT22;5768;51.476;7.210;2023-06-26T11:37:20;24.60;15.60
11423;DHT22;5768;51.476;7.210;2023-06-26T11:42:24;24.80;15.00
11423;DHT22;5768;51.476;7.210;2023-06-26T11:47:26;25.40;14.70
11423;DHT22;5768;51.476;7.210;2023-06-26T11:52:32;25.20;14.60
11423;DHT22;5768;51.476;7.210;2023-06-26T11:57:35;25.10;14.40
11423;DHT22;5768;51.476;7.210;2023-06-26T12:02:37;25.50;14.40
11423;DHT22;5768;51.476;7.210;2023-06-26T12:07:42;25.90;14.50
11423;DHT22;5768;51.476;7.210;2023-06-26T12:12:47;25.70;14.90
11423;DHT22;5768;51.476;7.210;2023-06-26T12:17:49;25.60;14.30
11423;DHT22;5768;51.476;7.210;2023-06-26T12:22:53;26.00;14.10
11423;DHT22;5768;51.476;7.210;2023-06-26T12:27:55;26.20;14.00
11423;DHT22;5768;51.476;7.210;2023-06-26T12:32:57;26.40;13.70
11423;DHT22;5768;51.476;7.210;2023-06-26T12:38:00;26.00;13.90
11423;DHT22;5768;51.476;7.210;2023-06-26T12:43:03;25.80;13.70
11423;DHT22;5768;51.476;7.210;2023-06-26T12:48:10;26.40;13.70
11423;DHT22;5768;51.476;7.210;2023-06-26T12:53:15;28.20;13.40
11423;DHT22;5768;51.476;7.210;2023-06-26T12:58:17;27.10;13.40
11423;DHT22;5768;51.476;7.210;2023-06-26T13:03:19;26.90;13.10
11423;DHT22;5768;51.476;7.210;2023-06-26T13:08:23;26.90;13.10
11423;DHT22;5768;51.476;7.210;2023-06-26T13:13:25;27.70;12.90
11423;DHT22;5768;51.476;7.210;2023-06-26T13:18:28;27.40;12.50
11423;DHT22;5768;51.476;7.210;2023-06-26T13:23:31;27.40;12.60
11423;DHT22;5768;51.476;7.210;2023-06-26T13:28:34;26.20;12.60
11423;DHT22;5768;51.476;7.210;2023-06-26T13:33:36;25.30;12.70
11423;DHT22;5768;51.476;7.210;2023-06-26T13:38:40;27.10;12.30
11423;DHT22;5768;51.476;7.210;2023-06-26T13:43:42;27.90;12.20
11423;DHT22;5768;51.476;7.210;2023-06-26T13:48:44;32.00;12.20
11423;DHT22;5768;51.476;7.210;2023-06-26T13:53:47;31.00;11.80
11423;DHT22;5768;51.476;7.210;2023-06-26T13:58:50;30.10;11.90
11423;DHT22;5768;51.476;7.210;2023-06-26T14:03:52;30.90;11.60
11423;DHT22;5768;51.476;7.210;2023-06-26T14:08:55;33.70;11.40
11423;DHT22;5768;51.476;7.210;2023-06-26T14:13:57;35.10;11.10
11423;DHT22;5768;51.476;7.210;2023-06-26T14:19:00;32.20;11.20
11423;DHT22;5768;51.476;7.210;2023-06-26T14:24:04;33.10;11.30
11423;DHT22;5768;51.476;7.210;2023-06-26T14:29:06;33.90;11.10
11423;DHT22;5768;51.476;7.210;2023-06-26T14:34:08;33.90;11.10
11423;DHT22;5768;51.476;7.210;2023-06-26T14:39:12;33.00;11.20
11423;DHT22;5768;51.476;7.210;2023-06-26T14:44:14;34.40;10.80
11423;DHT22;5768;51.476;7.210;2023-06-26T14:49:17;35.80;10.60
11423;DHT22;5768;51.476;7.210;2023-06-26T14:54:22;33.80;11.00
11423;DHT22;5768;51.476;7.210;2023-06-26T14:59:24;33.50;11.20
11423;DHT22;5768;51.476;7.210;2023-06-26T15:04:26;32.50;11.60
11423;DHT22;5768;51.476;7.210;2023-06-26T15:09:30;32.20;11.50
11423;DHT22;5768;51.476;7.210;2023-06-26T15:14:32;30.30;11.60
11423;DHT22;5768;51.476;7.210;2023-06-26T15:19:35;33.50;11.60
11423;DHT22;5768;51.476;7.210;2023-06-26T15:24:40;33.40;11.80
11423;DHT22;5768;51.476;7.210;2023-06-26T15:39:50;34.00;11.80
11423;DHT22;5768;51.476;7.210;2023-06-26T15:44:52;31.90;11.70
11423;DHT22;5768;51.476;7.210;2023-06-26T15:49:55;32.30;12.40
11423;DHT22;5768;51.476;7.210;2023-06-26T15:54:58;30.70;12.40
11423;DHT22;5768;51.476;7.210;2023-06-26T16:00:01;28.70;12.80
11423;DHT22;5768;51.476;7.210;2023-06-26T16:05:05;27.30;13.10
11423;DHT22;5768;51.476;7.210;2023-06-26T16:10:10;26.30;13.70
11423;DHT22;5768;51.476;7.210;2023-06-26T16:15:12;25.40;13.10
11423;DHT22;5768;51.476;7.210;2023-06-26T16:20:15;25.60;12.90
11423;DHT22;5768;51.476;7.210;2023-06-26T16:25:18;26.50;12.70
11423;DHT22;5768;51.476;7.210;2023-06-26T16:30:21;27.40;12.70
11423;DHT22;5768;51.476;7.210;2023-06-26T16:35:24;26.80;12.70
11423;DHT22;5768;51.476;7.210;2023-06-26T16:40:28;26.40;12.80
11423;DHT22;5768;51.476;7.210;2023-06-26T16:45:31;25.70;12.40
11423;DHT22;5768;51.476;7.210;2023-06-26T16:50:33;24.90;12.50
11423;DHT22;5768;51.476;7.210;2023-06-26T16:55:36;24.90;12.70
11423;DHT22;5768;51.476;7.210;2023-06-26T17:00:39;24.10;12.80
11423;DHT22;5768;51.476;7.210;2023-06-26T17:05:41;24.00;12.80
11423;DHT22;5768;51.476;7.210;2023-06-26T17:10:45;23.80;12.60
11423;DHT22;5768;51.476;7.210;2023-06-26T17:15:47;23.70;12.70
11423;DHT22;5768;51.476;7.210;2023-06-26T17:20:49;23.40;12.60
11423;DHT22;5768;51.476;7.210;2023-06-26T17:25:53;23.50;12.70
11423;DHT22;5768;51.476;7.210;2023-06-26T17:30:57;24.00;12.60
11423;DHT22;5768;51.476;7.210;2023-06-26T17:36:00;24.20;12.50
11423;DHT22;5768;51.476;7.210;2023-06-26T17:41:04;24.20;12.50
11423;DHT22;5768;51.476;7.210;2023-06-26T17:46:06;24.90;12.40
11423;DHT22;5768;51.476;7.210;2023-06-26T17:51:09;26.50;12.30
11423;DHT22;5768;51.476;7.210;2023-06-26T17:56:13;29.20;11.90
11423;DHT22;5768;51.476;7.210;2023-06-26T18:01:15;27.80;11.90
11423;DHT22;5768;51.476;7.210;2023-06-26T18:06:17;25.70;12.40
11423;DHT22;5768;51.476;7.210;2023-06-26T18:11:21;25.20;12.60
11423;DHT22;5768;51.476;7.210;2023-06-26T18:16:23;24.50;12.80
11423;DHT22;5768;51.476;7.210;2023-06-26T18:21:26;28.20;12.30
11423;DHT22;5768;51.476;7.210;2023-06-26T18:26:30;30.10;12.10
11423;DHT22;5768;51.476;7.210;2023-06-26T18:36:36;31.90;12.00
11423;DHT22;5768;51.476;7.210;2023-06-26T18:41:40;32.50;11.60
11423;DHT22;5768;51.476;7.210;2023-06-26T18:46:42;31.60;11.90
11423;DHT22;5768;51.476;7.210;2023-06-26T18:51:44;30.90;11.80
11423;DHT22;5768;51.476;7.210;2023-06-26T18:56:48;30.90;12.30
11423;DHT22;5768;51.476;7.210;2023-06-26T19:01:50;30.20;12.40
11423;DHT22;5768;51.476;7.210;2023-06-26T19:06:52;30.10;11.90
11423;DHT22;5768;51.476;7.210;2023-06-26T19:11:56;30.20;11.80
11423;DHT22;5768;51.476;7.210;2023-06-26T19:16:58;28.80;11.90
11423;DHT22;5768;51.476;7.210;2023-06-26T19:22:01;28.10;12.00
11423;DHT22;5768;51.476;7.210;2023-06-26T19:27:05;27.20;12.10
11423;DHT22;5768;51.476;7.210;2023-06-26T19:32:07;25.70;12.40
11423;DHT22;5768;51.476;7.210;2023-06-26T19:37:10;23.90;12.90
11423;DHT22;5768;51.476;7.210;2023-06-26T19:42:14;22.90;13.30
11423;DHT22;5768;51.476;7.210;2023-06-26T19:47:16;22.20;14.00
11423;DHT22;5768;51.476;7.210;2023-06-26T19:52:18;22.00;14.20
11423;DHT22;5768;51.476;7.210;2023-06-26T19:57:22;22.00;14.30
11423;DHT22;5768;51.476;7.210;2023-06-26T20:02:24;21.50;14.20
11423;DHT22;5768;51.476;7.210;2023-06-26T20:07:26;21.30;14.70
11423;DHT22;5768;51.476;7.210;2023-06-26T20:12:30;21.10;14.40
11423;DHT22;5768;51.476;7.210;2023-06-26T20:17:32;21.00;14.70
11423;DHT22;5768;51.476;7.210;2023-06-26T20:22:34;20.80;14.50
11423;DHT22;5768;51.476;7.210;2023-06-26T20:27:38;20.40;15.00
11423;DHT22;5768;51.476;7.210;2023-06-26T20:32:40;20.50;15.20
11423;DHT22;5768;51.476;7.210;2023-06-26T20:37:43;20.20;15.30
11423;DHT22;5768;51.476;7.210;2023-06-26T20:42:47;20.10;15.10
11423;DHT22;5768;51.476;7.210;2023-06-26T20:47:50;20.20;15.20
11423;DHT22;5768;51.476;7.210;2023-06-26T20:52:53;20.10;15.30
11423;DHT22;5768;51.476;7.210;2023-06-26T20:57:59;20.00;15.40
11423;DHT22;5768;51.476;7.210;2023-06-26T21:03:01;19.90;15.40
11423;DHT22;5768;51.476;7.210;2023-06-26T21:13:09;19.60;15.40
11423;DHT22;5768;51.476;7.210;2023-06-26T21:18:15;19.70;15.30
11423;DHT22;5768;51.476;7.210;2023-06-26T21:23:18;19.60;15.20
11423;DHT22;5768;51.476;7.210;2023-06-26T21:28:22;19.40;15.30
11423;DHT22;5768;51.476;7.210;2023-06-26T21:33:25;19.30;15.50
11423;DHT22;5768;51.476;7.210;2023-06-26T21:38:27;19.30;15.60
11423;DHT22;5768;51.476;7.210;2023-06-26T21:43:31;18.90;15.50
11423;DHT22;5768;51.476;7.210;2023-06-26T21:48:34;18.90;15.90
11423;DHT22;5768;51.476;7.210;2023-06-26T21:58:40;18.60;16.10
11423;DHT22;5768;51.476;7.210;2023-06-26T22:03:42;18.90;16.10
11423;DHT22;5768;51.476;7.210;2023-06-26T22:08:45;18.90;16.10
11423;DHT22;5768;51.476;7.210;2023-06-26T22:13:49;18.80;16.10
11423;DHT22;5768;51.476;7.210;2023-06-26T22:18:51;18.80;15.60
11423;DHT22;5768;51.476;7.210;2023-06-26T22:23:53;18.70;15.70
11423;DHT22;5768;51.476;7.210;2023-06-26T22:28:57;18.60;15.80
11423;DHT22;5768;51.476;7.210;2023-06-26T22:34:00;18.60;15.90
11423;DHT22;5768;51.476;7.210;2023-06-26T22:39:02;18.50;16.00
11423;DHT22;5768;51.476;7.210;2023-06-26T22:44:06;18.50;16.00
11423;DHT22;5768;51.476;7.210;2023-06-26T22:49:09;18.40;16.10
11423;DHT22;5768;51.476;7.210;2023-06-26T22:54:12;18.30;16.20
11423;DHT22;5768;51.476;7.210;2023-06-26T22:59:16;18.20;16.40
11423;DHT22;5768;51.476;7.210;2023-06-26T23:04:20;18.30;16.20
11423;DHT22;5768;51.476;7.210;2023-06-26T23:09:22;18.50;16.20
11423;DHT22;5768;51.476;7.210;2023-06-26T23:14:26;18.50;16.30
11423;DHT22;5768;51.476;7.210;2023-06-26T23:19:28;18.40;16.30
11423;DHT22;5768;51.476;7.210;2023-06-26T23:24:32;18.30;16.50
11423;DHT22;5768;51.476;7.210;2023-06-26T23:29:36;18.40;16.60
11423;DHT22;5768;51.476;7.210;2023-06-26T23:34:39;18.20;16.50
11423;DHT22;5768;51.476;7.210;2023-06-26T23:39:42;18.30;16.40
11423;DHT22;5768;51.476;7.210;2023-06-26T23:44:45;18.30;16.50
11423;DHT22;5768;51.476;7.210;2023-06-26T23:49:50;18.20;16.30
11423;DHT22;5768;51.476;7.210;2023-06-26T23:54:52;18.20;16.30
11423;DHT22;5768;51.476;7.210;2023-06-26T23:59:55;18.10;16.40
